createdAt,value
2019-02-15T00:00:31.230Z,695.13
2019-02-15T00:05:33.009Z,367.00
2019-02-15T00:10:34.569Z,447.23
2019-02-15T00:15:36.521Z,559.03
2019-02-15T00:20:48.945Z,370.37
2019-02-15T00:25:50.494Z,293.07
2019-02-15T00:30:52.320Z,327.83
2019-02-15T00:35:53.989Z,514.97
2019-02-15T00:40:55.697Z,645.67
2019-02-15T00:46:14.117Z,403.27
2019-02-15T00:51:17.613Z,255.77
2019-02-15T00:56:23.920Z,557.73
2019-02-15T01:01:43.440Z,491.17
2019-02-15T01:06:46.898Z,421.93
2019-02-15T01:11:50.496Z,420.57
2019-02-15T01:16:52.292Z,715.77
2019-02-15T01:21:53.986Z,602.97
2019-02-15T01:26:57.441Z,286.17
2019-02-15T01:32:08.194Z,246.50
2019-02-15T01:37:14.530Z,259.80
2019-02-15T01:42:17.994Z,344.27
2019-02-15T01:47:20.108Z,462.20
2019-02-15T01:52:21.662Z,747.27
2019-02-15T01:57:23.275Z,563.73
2019-02-15T02:02:26.729Z,731.03
2019-02-15T02:07:28.526Z,660.87
2019-02-15T02:12:30.128Z,770.73
2019-02-15T02:17:31.874Z,952.73
2019-02-15T02:22:33.433Z,676.03
2019-02-15T02:27:35.054Z,867.47
2019-02-15T02:32:36.626Z,947.13
2019-02-15T02:37:38.289Z,771.30
2019-02-15T02:42:39.864Z,1118.80
2019-02-15T02:47:41.463Z,739.97
2019-02-15T02:52:45.997Z,714.70
2019-02-15T02:57:47.649Z,680.53
2019-02-15T03:02:49.206Z,811.20
2019-02-15T03:07:52.291Z,761.43
2019-02-15T03:12:53.945Z,464.03
2019-02-15T03:17:55.578Z,381.10
2019-02-15T03:22:57.133Z,472.30
2019-02-15T03:27:58.755Z,792.63
2019-02-15T03:33:00.400Z,843.03
2019-02-15T03:38:07.175Z,861.00
2019-02-15T03:43:08.930Z,807.70
2019-02-15T03:48:10.488Z,629.83
2019-02-15T03:53:12.050Z,876.37
2019-02-15T03:58:13.751Z,709.20
2019-02-15T04:03:15.511Z,652.57
2019-02-15T04:08:17.059Z,519.33
2019-02-15T04:13:18.773Z,453.73
2019-02-15T04:18:23.426Z,294.70
2019-02-15T04:23:24.988Z,301.50
2019-02-15T04:28:26.590Z,152.33
2019-02-15T04:33:28.190Z,178.10
2019-02-15T04:38:29.962Z,203.07
2019-02-15T04:43:31.556Z,256.47
2019-02-15T04:48:33.109Z,169.70
2019-02-15T04:53:34.669Z,141.03
2019-02-15T04:58:36.292Z,148.70
2019-02-15T05:03:37.853Z,168.93
2019-02-15T05:08:39.416Z,151.40
2019-02-15T05:13:41.338Z,126.27
2019-02-15T05:18:43.061Z,88.47
2019-02-15T05:23:44.612Z,93.80
2019-02-15T05:28:46.219Z,103.17
2019-02-15T05:33:47.855Z,123.33
2019-02-15T05:38:49.499Z,150.97
2019-02-15T05:43:52.173Z,166.97
2019-02-15T05:48:53.730Z,102.37
2019-02-15T05:53:55.281Z,89.07
2019-02-15T05:58:57.209Z,91.80
2019-02-15T06:03:58.761Z,91.63
2019-02-15T06:09:00.354Z,90.63
2019-02-15T06:14:01.966Z,81.80
2019-02-15T06:19:03.567Z,96.57
2019-02-15T06:24:05.122Z,86.77
2019-02-15T06:29:06.738Z,89.27
2019-02-15T06:34:08.373Z,169.50
2019-02-15T06:39:09.932Z,201.73
2019-02-15T06:44:12.250Z,255.83
2019-02-15T06:49:13.801Z,174.40
2019-02-15T06:54:15.364Z,148.63
2019-02-15T06:59:16.924Z,242.60
2019-02-15T07:04:20.396Z,175.77
2019-02-15T07:09:21.958Z,147.40
2019-02-15T07:14:23.762Z,165.83
2019-02-15T07:19:25.541Z,167.07
2019-02-15T07:24:27.106Z,191.07
2019-02-15T07:29:28.957Z,220.67
2019-02-15T07:34:30.575Z,250.37
2019-02-15T07:39:32.208Z,304.93
2019-02-15T07:44:33.765Z,249.03
2019-02-15T07:49:35.325Z,264.27
2019-02-15T07:54:36.926Z,311.20
2019-02-15T07:59:38.589Z,250.00
2019-02-15T08:04:40.505Z,260.97
2019-02-15T08:09:42.101Z,292.90
2019-02-15T08:14:43.833Z,355.03
2019-02-15T08:19:45.562Z,363.47
2019-02-15T08:24:47.428Z,311.67
2019-02-15T08:29:48.984Z,332.63
2019-02-15T08:34:50.541Z,272.67
2019-02-15T08:39:52.142Z,254.67
2019-02-15T08:44:53.857Z,236.43
2019-02-15T08:49:55.434Z,250.03
2019-02-15T08:54:56.996Z,237.97
2019-02-15T08:59:58.560Z,206.47
2019-02-15T09:05:01.875Z,200.43
2019-02-15T09:10:10.345Z,193.17
2019-02-15T09:15:16.730Z,225.57
2019-02-15T09:20:18.460Z,196.77
2019-02-15T09:25:20.044Z,163.07
2019-02-15T09:30:21.608Z,172.00
2019-02-15T09:35:23.197Z,166.03
2019-02-15T09:40:24.815Z,154.50
2019-02-15T09:45:26.374Z,128.57
2019-02-15T09:50:27.944Z,120.90
2019-02-15T09:55:29.518Z,74.93
2019-02-15T10:00:31.078Z,84.23
2019-02-15T10:05:32.705Z,81.30
2019-02-15T10:10:34.294Z,60.17
2019-02-15T10:15:35.849Z,47.90
2019-02-15T10:20:37.546Z,51.10
2019-02-15T10:25:39.114Z,62.40
2019-02-15T10:30:40.776Z,56.23
2019-02-15T10:35:42.585Z,51.43
2019-02-15T10:40:44.187Z,44.83
2019-02-15T10:45:45.838Z,52.73
2019-02-15T10:50:47.504Z,46.50
2019-02-15T10:55:49.218Z,36.23
2019-02-15T11:00:50.770Z,29.73
2019-02-15T11:05:52.525Z,21.63
2019-02-15T11:10:54.119Z,25.17
2019-02-15T11:15:56.006Z,19.70
2019-02-15T11:20:57.664Z,15.53
2019-02-15T11:25:59.358Z,24.20
2019-02-15T11:31:00.929Z,19.67
2019-02-15T11:36:02.831Z,27.97
2019-02-15T11:41:10.975Z,25.87
2019-02-15T11:46:07.979Z,19.27
2019-02-15T11:51:09.681Z,14.77
2019-02-15T11:56:11.281Z,17.20
2019-02-15T12:01:12.850Z,15.47
2019-02-15T12:06:14.510Z,20.43
2019-02-15T12:11:16.066Z,22.33
2019-02-15T12:16:17.654Z,27.80
2019-02-15T12:21:19.421Z,25.70
2019-02-15T12:26:21.026Z,23.10
2019-02-15T12:31:22.608Z,19.20
2019-02-15T12:36:24.228Z,21.90
2019-02-15T12:41:25.783Z,22.67
2019-02-15T12:46:27.458Z,22.50
2019-02-15T12:51:32.242Z,29.60
2019-02-15T12:56:33.843Z,25.80
2019-02-15T13:01:35.511Z,32.00
2019-02-15T13:06:37.173Z,30.77
2019-02-15T13:11:39.843Z,28.97
2019-02-15T13:16:41.411Z,25.37
2019-02-15T13:21:43.030Z,31.13
2019-02-15T13:26:44.633Z,26.83
2019-02-15T13:31:46.314Z,35.03
2019-02-15T13:36:47.977Z,28.93
2019-02-15T13:41:49.717Z,29.83
2019-02-15T13:46:51.383Z,38.63
2019-02-15T13:51:52.942Z,35.70
2019-02-15T13:56:54.552Z,38.40
2019-02-15T14:01:56.232Z,27.23
2019-02-15T14:06:57.941Z,36.37
2019-02-15T14:11:59.518Z,37.37
2019-02-15T14:17:01.106Z,30.43
2019-02-15T14:22:03.943Z,38.70
2019-02-15T14:27:05.528Z,37.90
2019-02-15T14:32:07.119Z,33.17
2019-02-15T14:37:09.009Z,36.93
2019-02-15T14:42:10.586Z,38.70
2019-02-15T14:47:12.150Z,46.37
2019-02-15T14:52:13.723Z,47.03
2019-02-15T14:57:15.292Z,42.77
2019-02-15T15:02:16.904Z,45.40
2019-02-15T15:07:18.533Z,46.70
2019-02-15T15:12:21.193Z,55.73
2019-02-15T15:17:22.767Z,48.73
2019-02-15T15:22:24.417Z,56.03
2019-02-15T15:27:25.978Z,73.33
2019-02-15T15:32:27.830Z,73.97
2019-02-15T15:37:29.938Z,73.37
2019-02-15T15:42:31.568Z,65.00
2019-02-15T15:47:33.359Z,73.17
2019-02-15T15:52:35.322Z,70.40
2019-02-15T15:57:37.043Z,76.97
2019-02-15T16:02:38.611Z,80.73
2019-02-15T16:07:40.454Z,78.00
2019-02-15T16:12:42.012Z,87.00
2019-02-15T16:17:43.579Z,90.97
2019-02-15T16:22:45.203Z,81.37
2019-02-15T16:27:46.759Z,96.87
2019-02-15T16:32:48.314Z,120.43
2019-02-15T16:37:49.952Z,120.03
2019-02-15T16:42:51.571Z,134.13
2019-02-15T16:47:53.175Z,134.30
2019-02-15T16:52:54.738Z,136.47
2019-02-15T16:57:56.309Z,191.10
2019-02-15T17:02:57.896Z,195.07
2019-02-15T17:07:59.466Z,154.93
2019-02-15T17:13:01.085Z,154.97
2019-02-15T17:18:02.714Z,161.13
2019-02-15T17:23:04.395Z,144.93
2019-02-15T17:28:05.964Z,123.50
2019-02-15T17:33:07.530Z,141.40
2019-02-15T17:38:09.333Z,143.63
2019-02-15T17:43:11.759Z,149.77
2019-02-15T17:48:13.385Z,135.67
2019-02-15T17:53:14.962Z,125.63
2019-02-15T17:58:16.635Z,149.33
2019-02-15T18:03:18.203Z,160.13
2019-02-15T18:08:19.763Z,129.17
2019-02-15T18:13:21.382Z,120.20
2019-02-15T18:18:24.079Z,106.77
2019-02-15T18:23:25.807Z,111.57
2019-02-15T18:28:27.648Z,106.70
2019-02-15T18:33:29.213Z,98.27
2019-02-15T18:38:30.806Z,100.93
2019-02-15T18:43:32.375Z,144.40
2019-02-15T18:48:33.970Z,117.90
2019-02-15T18:53:35.591Z,110.80
2019-02-15T18:58:37.151Z,116.40
2019-02-15T19:03:39.126Z,105.83
2019-02-15T19:08:40.727Z,116.60
2019-02-15T19:13:42.334Z,123.70
2019-02-15T19:18:43.917Z,106.93
2019-02-15T19:23:45.729Z,101.77
2019-02-15T19:28:49.203Z,128.40
2019-02-15T19:33:50.882Z,116.07
2019-02-15T19:38:52.442Z,131.77
2019-02-15T19:43:54.252Z,84.70
2019-02-15T19:48:56.133Z,103.67
2019-02-15T19:53:58.317Z,98.80
2019-02-15T19:59:00.126Z,89.13
2019-02-15T20:04:01.725Z,102.37
2019-02-15T20:09:05.037Z,92.60
2019-02-15T20:14:08.114Z,108.97
2019-02-15T20:19:09.690Z,155.97
2019-02-15T20:24:11.418Z,137.90
2019-02-15T20:29:13.601Z,161.47
2019-02-15T20:34:15.186Z,180.27
2019-02-15T20:39:16.766Z,156.97
2019-02-15T20:44:20.456Z,167.43
2019-02-15T20:49:22.028Z,165.73
2019-02-15T20:54:23.640Z,156.40
2019-02-15T20:59:25.203Z,169.93
2019-02-15T21:04:26.764Z,165.37
2019-02-15T21:09:28.505Z,164.93
2019-02-15T21:14:30.080Z,195.73
2019-02-15T21:19:31.692Z,200.80
2019-02-15T21:24:33.341Z,145.17
2019-02-15T21:29:34.975Z,139.27
2019-02-15T21:34:36.537Z,131.00
2019-02-15T21:39:38.104Z,119.43
2019-02-15T21:44:39.681Z,125.10
2019-02-15T21:49:41.260Z,116.47
2019-02-15T21:54:42.875Z,112.33
2019-02-15T21:59:44.466Z,117.73
2019-02-15T22:04:47.130Z,112.83
2019-02-15T22:09:49.937Z,108.27
2019-02-15T22:14:51.496Z,94.37
2019-02-15T22:19:53.168Z,111.07
2019-02-15T22:24:54.825Z,123.63
2019-02-15T22:29:56.461Z,130.50
2019-02-15T22:34:58.192Z,112.90
2019-02-15T22:40:23.809Z,105.23
2019-02-15T22:45:25.382Z,92.93
2019-02-15T22:50:35.350Z,96.33
2019-02-15T22:55:30.406Z,99.07
2019-02-15T23:00:56.632Z,110.47
2019-02-15T23:05:58.701Z,102.33
2019-02-15T23:11:00.362Z,97.80
2019-02-15T23:16:02.037Z,89.23
2019-02-15T23:21:03.806Z,86.97
2019-02-15T23:26:06.588Z,80.50
2019-02-15T23:31:08.659Z,80.43
2019-02-15T23:36:10.227Z,80.50
2019-02-15T23:41:11.845Z,81.07
2019-02-15T23:46:13.438Z,80.90
2019-02-15T23:51:15.006Z,75.60
2019-02-15T23:56:16.572Z,77.00
